sensor_id;sensor_type;location;lat;lon;timestamp;P1;durP1;ratioP1;P2;durP2;ratioP2
40256;SDS011;25977;45.462;9.210;2022-10-17T00:00:03;55.33;;;30.95;;
40256;SDS011;25977;45.462;9.210;2022-10-17T00:02:30;52.53;;;28.77;;
40256;SDS011;25977;45.462;9.210;2022-10-17T00:04:56;57.00;;;31.30;;
40256;SDS011;25977;45.462;9.210;2022-10-17T00:07:21;56.40;;;31.52;;
40256;SDS011;25977;45.462;9.210;2022-10-17T00:09:47;51.15;;;31.02;;
40256;SDS011;25977;45.462;9.210;2022-10-17T00:12:13;51.22;;;29.08;;
40256;SDS011;25977;45.462;9.210;2022-10-17T00:14:38;55.47;;;31.55;;
40256;SDS011;25977;45.462;9.210;2022-10-17T00:17:04;52.80;;;28.40;;
40256;SDS011;25977;45.462;9.210;2022-10-17T00:19:30;50.58;;;28.85;;
40256;SDS011;25977;45.462;9.210;2022-10-17T00:21:56;49.75;;;29.55;;
40256;SDS011;25977;45.462;9.210;2022-10-17T00:24:21;52.20;;;28.77;;
40256;SDS011;25977;45.462;9.210;2022-10-17T00:26:47;49.05;;;29.20;;
40256;SDS011;25977;45.462;9.210;2022-10-17T00:29:13;52.78;;;29.60;;
40256;SDS011;25977;45.462;9.210;2022-10-17T00:31:38;49.08;;;29.42;;
40256;SDS011;25977;45.462;9.210;2022-10-17T00:34:04;46.75;;;29.33;;
40256;SDS011;25977;45.462;9.210;2022-10-17T00:36:30;49.75;;;29.42;;
40256;SDS011;25977;45.462;9.210;2022-10-17T00:38:57;53.42;;;29.08;;
40256;SDS011;25977;45.462;9.210;2022-10-17T00:41:24;54.47;;;28.98;;
40256;SDS011;25977;45.462;9.210;2022-10-17T00:44:03;45.70;;;27.80;;
40256;SDS011;25977;45.462;9.210;2022-10-17T00:46:32;56.42;;;28.98;;
40256;SDS011;25977;45.462;9.210;2022-10-17T00:49:07;59.85;;;28.80;;
40256;SDS011;25977;45.462;9.210;2022-10-17T00:51:37;53.45;;;30.13;;
40256;SDS011;25977;45.462;9.210;2022-10-17T00:54:15;62.35;;;30.60;;
40256;SDS011;25977;45.462;9.210;2022-10-17T00:56:43;55.55;;;29.63;;
40256;SDS011;25977;45.462;9.210;2022-10-17T00:59:12;54.33;;;29.23;;
40256;SDS011;25977;45.462;9.210;2022-10-17T01:01:40;47.28;;;27.80;;
40256;SDS011;25977;45.462;9.210;2022-10-17T01:04:11;49.97;;;29.20;;
40256;SDS011;25977;45.462;9.210;2022-10-17T01:06:38;54.92;;;29.83;;
40256;SDS011;25977;45.462;9.210;2022-10-17T01:09:03;55.45;;;31.92;;
40256;SDS011;25977;45.462;9.210;2022-10-17T01:14:20;56.25;;;30.80;;
40256;SDS011;25977;45.462;9.210;2022-10-17T01:16:56;52.97;;;29.40;;
40256;SDS011;25977;45.462;9.210;2022-10-17T01:22:39;56.53;;;30.48;;
40256;SDS011;25977;45.462;9.210;2022-10-17T01:25:45;55.00;;;30.17;;
40256;SDS011;25977;45.462;9.210;2022-10-17T01:31:39;55.00;;;30.55;;
40256;SDS011;25977;45.462;9.210;2022-10-17T01:34:15;57.60;;;31.23;;
40256;SDS011;25977;45.462;9.210;2022-10-17T01:36:48;55.20;;;30.98;;
40256;SDS011;25977;45.462;9.210;2022-10-17T01:47:37;60.47;;;33.95;;
40256;SDS011;25977;45.462;9.210;2022-10-17T01:50:16;55.45;;;31.27;;
40256;SDS011;25977;45.462;9.210;2022-10-17T01:52:47;54.97;;;29.33;;
40256;SDS011;25977;45.462;9.210;2022-10-17T01:55:24;55.53;;;30.48;;
40256;SDS011;25977;45.462;9.210;2022-10-17T01:58:17;51.67;;;29.13;;
40256;SDS011;25977;45.462;9.210;2022-10-17T02:00:43;64.65;;;32.58;;
40256;SDS011;25977;45.462;9.210;2022-10-17T02:03:12;61.13;;;31.60;;
40256;SDS011;25977;45.462;9.210;2022-10-17T02:05:42;56.75;;;31.00;;
40256;SDS011;25977;45.462;9.210;2022-10-17T02:08:08;56.70;;;29.20;;
40256;SDS011;25977;45.462;9.210;2022-10-17T02:10:39;59.63;;;31.48;;
40256;SDS011;25977;45.462;9.210;2022-10-17T02:13:17;56.83;;;31.50;;
40256;SDS011;25977;45.462;9.210;2022-10-17T02:16:05;57.40;;;30.98;;
40256;SDS011;25977;45.462;9.210;2022-10-17T02:21:06;62.97;;;34.40;;
40256;SDS011;25977;45.462;9.210;2022-10-17T02:26:31;57.42;;;31.98;;
40256;SDS011;25977;45.462;9.210;2022-10-17T02:31:50;63.72;;;34.42;;
40256;SDS011;25977;45.462;9.210;2022-10-17T02:34:41;59.28;;;32.25;;
40256;SDS011;25977;45.462;9.210;2022-10-17T02:37:12;63.88;;;34.17;;
40256;SDS011;25977;45.462;9.210;2022-10-17T02:39:41;57.95;;;32.63;;
40256;SDS011;25977;45.462;9.210;2022-10-17T02:42:10;61.35;;;33.55;;
40256;SDS011;25977;45.462;9.210;2022-10-17T02:44:39;56.08;;;33.47;;
40256;SDS011;25977;45.462;9.210;2022-10-17T02:47:22;65.60;;;33.92;;
40256;SDS011;25977;45.462;9.210;2022-10-17T02:49:54;68.15;;;36.10;;
40256;SDS011;25977;45.462;9.210;2022-10-17T02:53:07;65.80;;;36.60;;
40256;SDS011;25977;45.462;9.210;2022-10-17T02:55:09;69.30;;;33.78;;
40256;SDS011;25977;45.462;9.210;2022-10-17T02:57:37;67.00;;;35.90;;
40256;SDS011;25977;45.462;9.210;2022-10-17T03:00:07;61.35;;;33.97;;
40256;SDS011;25977;45.462;9.210;2022-10-17T03:02:43;68.43;;;36.95;;
40256;SDS011;25977;45.462;9.210;2022-10-17T03:05:11;60.42;;;33.83;;
40256;SDS011;25977;45.462;9.210;2022-10-17T03:07:38;66.00;;;34.30;;
40256;SDS011;25977;45.462;9.210;2022-10-17T03:10:04;66.93;;;35.40;;
40256;SDS011;25977;45.462;9.210;2022-10-17T03:12:30;66.03;;;33.88;;
40256;SDS011;25977;45.462;9.210;2022-10-17T03:14:56;70.25;;;36.47;;
40256;SDS011;25977;45.462;9.210;2022-10-17T03:17:22;66.05;;;34.17;;
40256;SDS011;25977;45.462;9.210;2022-10-17T03:19:48;69.65;;;37.50;;
40256;SDS011;25977;45.462;9.210;2022-10-17T03:22:14;66.35;;;35.88;;
40256;SDS011;25977;45.462;9.210;2022-10-17T03:24:43;71.80;;;36.55;;
40256;SDS011;25977;45.462;9.210;2022-10-17T03:27:09;67.45;;;36.13;;
40256;SDS011;25977;45.462;9.210;2022-10-17T03:29:35;71.35;;;36.03;;
40256;SDS011;25977;45.462;9.210;2022-10-17T03:32:03;68.78;;;36.80;;
40256;SDS011;25977;45.462;9.210;2022-10-17T03:34:29;69.40;;;36.20;;
40256;SDS011;25977;45.462;9.210;2022-10-17T03:36:55;69.47;;;35.25;;
40256;SDS011;25977;45.462;9.210;2022-10-17T03:39:21;68.78;;;35.83;;
40256;SDS011;25977;45.462;9.210;2022-10-17T03:41:47;62.67;;;33.70;;
40256;SDS011;25977;45.462;9.210;2022-10-17T03:44:13;65.80;;;35.45;;
40256;SDS011;25977;45.462;9.210;2022-10-17T03:46:39;68.78;;;34.78;;
40256;SDS011;25977;45.462;9.210;2022-10-17T03:49:04;68.22;;;34.30;;
40256;SDS011;25977;45.462;9.210;2022-10-17T03:51:34;69.25;;;37.03;;
40256;SDS011;25977;45.462;9.210;2022-10-17T03:54:05;60.55;;;33.17;;
40256;SDS011;25977;45.462;9.210;2022-10-17T03:56:31;75.97;;;36.13;;
40256;SDS011;25977;45.462;9.210;2022-10-17T03:59:03;62.93;;;35.07;;
40256;SDS011;25977;45.462;9.210;2022-10-17T04:01:32;63.03;;;35.38;;
40256;SDS011;25977;45.462;9.210;2022-10-17T04:03:58;72.40;;;36.90;;
40256;SDS011;25977;45.462;9.210;2022-10-17T04:06:27;67.57;;;35.50;;
40256;SDS011;25977;45.462;9.210;2022-10-17T04:08:53;66.57;;;32.95;;
40256;SDS011;25977;45.462;9.210;2022-10-17T04:11:30;72.97;;;36.15;;
40256;SDS011;25977;45.462;9.210;2022-10-17T04:13:58;66.55;;;35.80;;
40256;SDS011;25977;45.462;9.210;2022-10-17T04:16:25;71.03;;;37.08;;
40256;SDS011;25977;45.462;9.210;2022-10-17T04:18:58;69.72;;;35.17;;
40256;SDS011;25977;45.462;9.210;2022-10-17T04:21:28;66.60;;;34.70;;
40256;SDS011;25977;45.462;9.210;2022-10-17T04:23:59;68.30;;;36.22;;
40256;SDS011;25977;45.462;9.210;2022-10-17T04:26:43;67.50;;;35.72;;
40256;SDS011;25977;45.462;9.210;2022-10-17T04:29:08;77.88;;;35.13;;
40256;SDS011;25977;45.462;9.210;2022-10-17T04:31:36;98.63;;;37.47;;
40256;SDS011;25977;45.462;9.210;2022-10-17T04:34:20;70.57;;;36.53;;
40256;SDS011;25977;45.462;9.210;2022-10-17T04:36:46;65.28;;;33.22;;
40256;SDS011;25977;45.462;9.210;2022-10-17T04:39:13;69.15;;;36.45;;
40256;SDS011;25977;45.462;9.210;2022-10-17T04:41:39;66.55;;;35.38;;
40256;SDS011;25977;45.462;9.210;2022-10-17T04:44:05;71.10;;;35.17;;
40256;SDS011;25977;45.462;9.210;2022-10-17T04:46:35;63.67;;;35.42;;
40256;SDS011;25977;45.462;9.210;2022-10-17T04:49:01;71.85;;;36.17;;
40256;SDS011;25977;45.462;9.210;2022-10-17T04:51:28;72.45;;;37.15;;
40256;SDS011;25977;45.462;9.210;2022-10-17T04:54:08;69.00;;;34.78;;
40256;SDS011;25977;45.462;9.210;2022-10-17T04:56:39;71.40;;;33.50;;
40256;SDS011;25977;45.462;9.210;2022-10-17T04:59:05;65.82;;;32.60;;
40256;SDS011;25977;45.462;9.210;2022-10-17T05:01:32;63.85;;;34.17;;
40256;SDS011;25977;45.462;9.210;2022-10-17T05:03:58;70.75;;;36.08;;
40256;SDS011;25977;45.462;9.210;2022-10-17T05:06:24;70.78;;;35.35;;
40256;SDS011;25977;45.462;9.210;2022-10-17T05:09:11;62.28;;;34.13;;
40256;SDS011;25977;45.462;9.210;2022-10-17T05:11:37;68.00;;;34.30;;
40256;SDS011;25977;45.462;9.210;2022-10-17T05:14:03;63.40;;;32.85;;
40256;SDS011;25977;45.462;9.210;2022-10-17T05:16:31;65.03;;;35.10;;
40256;SDS011;25977;45.462;9.210;2022-10-17T05:18:57;64.90;;;34.53;;
40256;SDS011;25977;45.462;9.210;2022-10-17T05:21:29;69.82;;;34.90;;
40256;SDS011;25977;45.462;9.210;2022-10-17T05:23:56;63.60;;;35.03;;
40256;SDS011;25977;45.462;9.210;2022-10-17T05:26:22;71.53;;;33.63;;
40256;SDS011;25977;45.462;9.210;2022-10-17T05:28:48;72.22;;;34.65;;
40256;SDS011;25977;45.462;9.210;2022-10-17T05:31:18;67.68;;;34.50;;
40256;SDS011;25977;45.462;9.210;2022-10-17T05:33:44;65.68;;;35.55;;
40256;SDS011;25977;45.462;9.210;2022-10-17T05:36:11;67.78;;;34.70;;
40256;SDS011;25977;45.462;9.210;2022-10-17T05:38:38;69.63;;;35.10;;
40256;SDS011;25977;45.462;9.210;2022-10-17T05:41:04;73.03;;;33.13;;
40256;SDS011;25977;45.462;9.210;2022-10-17T05:43:32;61.70;;;32.90;;
40256;SDS011;25977;45.462;9.210;2022-10-17T05:45:58;59.75;;;30.67;;
40256;SDS011;25977;45.462;9.210;2022-10-17T05:48:27;64.90;;;32.35;;
40256;SDS011;25977;45.462;9.210;2022-10-17T05:50:57;63.95;;;32.53;;
40256;SDS011;25977;45.462;9.210;2022-10-17T05:53:24;60.85;;;31.70;;
40256;SDS011;25977;45.462;9.210;2022-10-17T05:55:55;58.90;;;31.80;;
40256;SDS011;25977;45.462;9.210;2022-10-17T05:58:21;64.70;;;32.45;;
40256;SDS011;25977;45.462;9.210;2022-10-17T06:00:50;58.17;;;30.38;;
40256;SDS011;25977;45.462;9.210;2022-10-17T06:03:16;63.80;;;32.63;;
40256;SDS011;25977;45.462;9.210;2022-10-17T06:05:42;60.88;;;32.42;;
40256;SDS011;25977;45.462;9.210;2022-10-17T06:08:07;61.45;;;31.92;;
40256;SDS011;25977;45.462;9.210;2022-10-17T06:10:35;56.20;;;30.92;;
40256;SDS011;25977;45.462;9.210;2022-10-17T06:13:00;62.10;;;31.65;;
40256;SDS011;25977;45.462;9.210;2022-10-17T06:15:26;59.70;;;32.17;;
40256;SDS011;25977;45.462;9.210;2022-10-17T06:18:03;63.65;;;31.25;;
40256;SDS011;25977;45.462;9.210;2022-10-17T06:20:29;60.63;;;31.17;;
40256;SDS011;25977;45.462;9.210;2022-10-17T06:22:55;68.53;;;32.88;;
40256;SDS011;25977;45.462;9.210;2022-10-17T06:25:35;58.88;;;29.92;;
40256;SDS011;25977;45.462;9.210;2022-10-17T06:28:01;56.95;;;30.75;;
40256;SDS011;25977;45.462;9.210;2022-10-17T06:30:28;62.05;;;31.98;;
40256;SDS011;25977;45.462;9.210;2022-10-17T06:32:53;60.03;;;32.60;;
40256;SDS011;25977;45.462;9.210;2022-10-17T06:35:19;61.60;;;31.15;;
40256;SDS011;25977;45.462;9.210;2022-10-17T06:37:45;61.45;;;31.33;;
40256;SDS011;25977;45.462;9.210;2022-10-17T06:40:12;59.55;;;30.65;;
40256;SDS011;25977;45.462;9.210;2022-10-17T06:42:39;66.13;;;35.05;;
40256;SDS011;25977;45.462;9.210;2022-10-17T06:45:12;62.08;;;33.95;;
40256;SDS011;25977;45.462;9.210;2022-10-17T06:47:50;61.40;;;30.08;;
40256;SDS011;25977;45.462;9.210;2022-10-17T06:50:35;74.28;;;33.08;;
40256;SDS011;25977;45.462;9.210;2022-10-17T06:53:10;72.15;;;33.30;;
40256;SDS011;25977;45.462;9.210;2022-10-17T06:56:04;68.55;;;33.20;;
40256;SDS011;25977;45.462;9.210;2022-10-17T06:58:50;59.67;;;30.73;;
40256;SDS011;25977;45.462;9.210;2022-10-17T07:01:37;68.95;;;32.25;;
40256;SDS011;25977;45.462;9.210;2022-10-17T07:04:03;62.67;;;31.02;;
40256;SDS011;25977;45.462;9.210;2022-10-17T07:06:30;61.17;;;31.92;;
40256;SDS011;25977;45.462;9.210;2022-10-17T07:09:00;65.72;;;30.83;;
40256;SDS011;25977;45.462;9.210;2022-10-17T07:11:27;69.75;;;33.08;;
40256;SDS011;25977;45.462;9.210;2022-10-17T07:13:53;70.40;;;34.80;;
40256;SDS011;25977;45.462;9.210;2022-10-17T07:16:20;62.30;;;33.45;;
40256;SDS011;25977;45.462;9.210;2022-10-17T07:18:51;66.28;;;34.78;;
40256;SDS011;25977;45.462;9.210;2022-10-17T07:21:18;73.57;;;35.35;;
40256;SDS011;25977;45.462;9.210;2022-10-17T07:23:45;64.88;;;34.38;;
40256;SDS011;25977;45.462;9.210;2022-10-17T07:26:12;70.78;;;36.67;;
40256;SDS011;25977;45.462;9.210;2022-10-17T07:28:41;72.13;;;37.15;;
40256;SDS011;25977;45.462;9.210;2022-10-17T07:31:26;70.72;;;36.30;;
40256;SDS011;25977;45.462;9.210;2022-10-17T07:33:52;68.75;;;35.03;;
40256;SDS011;25977;45.462;9.210;2022-10-17T07:36:18;75.47;;;36.47;;
40256;SDS011;25977;45.462;9.210;2022-10-17T07:38:45;66.00;;;34.45;;
40256;SDS011;25977;45.462;9.210;2022-10-17T07:41:10;72.00;;;35.72;;
40256;SDS011;25977;45.462;9.210;2022-10-17T07:43:37;73.03;;;34.60;;
40256;SDS011;25977;45.462;9.210;2022-10-17T07:46:06;68.13;;;35.47;;
40256;SDS011;25977;45.462;9.210;2022-10-17T07:48:32;66.75;;;35.90;;
40256;SDS011;25977;45.462;9.210;2022-10-17T07:51:02;63.85;;;34.58;;
40256;SDS011;25977;45.462;9.210;2022-10-17T07:53:29;70.80;;;37.67;;
40256;SDS011;25977;45.462;9.210;2022-10-17T07:55:55;59.58;;;34.08;;
40256;SDS011;25977;45.462;9.210;2022-10-17T07:58:20;70.00;;;37.42;;
40256;SDS011;25977;45.462;9.210;2022-10-17T08:00:46;65.05;;;35.08;;
40256;SDS011;25977;45.462;9.210;2022-10-17T08:03:15;70.63;;;36.90;;
40256;SDS011;25977;45.462;9.210;2022-10-17T08:05:41;72.50;;;37.95;;
40256;SDS011;25977;45.462;9.210;2022-10-17T08:08:06;62.90;;;34.33;;
40256;SDS011;25977;45.462;9.210;2022-10-17T08:10:32;71.18;;;37.80;;
40256;SDS011;25977;45.462;9.210;2022-10-17T08:12:58;62.78;;;34.80;;
40256;SDS011;25977;45.462;9.210;2022-10-17T08:15:26;71.68;;;37.35;;
40256;SDS011;25977;45.462;9.210;2022-10-17T08:17:52;68.50;;;34.75;;
40256;SDS011;25977;45.462;9.210;2022-10-17T08:20:19;68.60;;;37.20;;
40256;SDS011;25977;45.462;9.210;2022-10-17T08:22:52;70.72;;;35.38;;
40256;SDS011;25977;45.462;9.210;2022-10-17T08:25:19;68.35;;;35.35;;
40256;SDS011;25977;45.462;9.210;2022-10-17T08:27:45;69.22;;;35.33;;
40256;SDS011;25977;45.462;9.210;2022-10-17T08:30:11;66.13;;;36.38;;
40256;SDS011;25977;45.462;9.210;2022-10-17T08:32:37;62.75;;;35.17;;
40256;SDS011;25977;45.462;9.210;2022-10-17T08:35:03;69.22;;;35.85;;
40256;SDS011;25977;45.462;9.210;2022-10-17T08:37:29;64.43;;;36.97;;
40256;SDS011;25977;45.462;9.210;2022-10-17T08:39:56;63.15;;;35.13;;
40256;SDS011;25977;45.462;9.210;2022-10-17T08:47:57;70.10;;;35.75;;
40256;SDS011;25977;45.462;9.210;2022-10-17T08:50:30;72.22;;;33.33;;
40256;SDS011;25977;45.462;9.210;2022-10-17T08:55:47;60.67;;;34.40;;
40256;SDS011;25977;45.462;9.210;2022-10-17T09:00:48;65.40;;;35.15;;
40256;SDS011;25977;45.462;9.210;2022-10-17T09:06:25;64.13;;;35.65;;
40256;SDS011;25977;45.462;9.210;2022-10-17T09:11:48;58.33;;;33.30;;
40256;SDS011;25977;45.462;9.210;2022-10-17T09:14:29;75.93;;;41.13;;
40256;SDS011;25977;45.462;9.210;2022-10-17T09:19:58;91.40;;;43.58;;
40256;SDS011;25977;45.462;9.210;2022-10-17T09:22:52;79.53;;;41.63;;
40256;SDS011;25977;45.462;9.210;2022-10-17T09:25:21;82.20;;;42.28;;
40256;SDS011;25977;45.462;9.210;2022-10-17T09:27:51;82.18;;;43.38;;
40256;SDS011;25977;45.462;9.210;2022-10-17T09:33:17;87.63;;;43.40;;
40256;SDS011;25977;45.462;9.210;2022-10-17T09:35:44;83.30;;;45.97;;
40256;SDS011;25977;45.462;9.210;2022-10-17T09:38:16;85.38;;;46.53;;
40256;SDS011;25977;45.462;9.210;2022-10-17T09:40:55;82.15;;;42.60;;
40256;SDS011;25977;45.462;9.210;2022-10-17T09:43:24;78.45;;;40.35;;
40256;SDS011;25977;45.462;9.210;2022-10-17T09:45:58;83.70;;;43.25;;
40256;SDS011;25977;45.462;9.210;2022-10-17T09:51:07;73.93;;;40.75;;
40256;SDS011;25977;45.462;9.210;2022-10-17T09:53:38;74.55;;;38.42;;
40256;SDS011;25977;45.462;9.210;2022-10-17T09:56:14;72.63;;;39.53;;
40256;SDS011;25977;45.462;9.210;2022-10-17T09:58:44;66.30;;;36.90;;
40256;SDS011;25977;45.462;9.210;2022-10-17T10:01:29;59.40;;;34.25;;
40256;SDS011;25977;45.462;9.210;2022-10-17T10:06:59;72.75;;;37.58;;
40256;SDS011;25977;45.462;9.210;2022-10-17T10:09:28;60.85;;;34.05;;
40256;SDS011;25977;45.462;9.210;2022-10-17T10:11:56;70.35;;;35.05;;
40256;SDS011;25977;45.462;9.210;2022-10-17T10:14:30;58.03;;;33.78;;
40256;SDS011;25977;45.462;9.210;2022-10-17T10:16:57;63.38;;;34.28;;
40256;SDS011;25977;45.462;9.210;2022-10-17T10:19:27;68.82;;;34.05;;
40256;SDS011;25977;45.462;9.210;2022-10-17T10:21:56;66.18;;;33.15;;
40256;SDS011;25977;45.462;9.210;2022-10-17T10:24:23;62.10;;;34.08;;
40256;SDS011;25977;45.462;9.210;2022-10-17T10:26:51;59.33;;;34.50;;
40256;SDS011;25977;45.462;9.210;2022-10-17T10:29:26;64.40;;;33.25;;
40256;SDS011;25977;45.462;9.210;2022-10-17T10:32:19;61.80;;;34.60;;
40256;SDS011;25977;45.462;9.210;2022-10-17T10:34:46;58.83;;;29.20;;
40256;SDS011;25977;45.462;9.210;2022-10-17T10:37:26;57.05;;;33.78;;
40256;SDS011;25977;45.462;9.210;2022-10-17T10:40:06;71.55;;;36.20;;
40256;SDS011;25977;45.462;9.210;2022-10-17T10:42:45;66.00;;;33.38;;
40256;SDS011;25977;45.462;9.210;2022-10-17T10:45:16;67.88;;;36.33;;
40256;SDS011;25977;45.462;9.210;2022-10-17T10:47:48;64.72;;;35.05;;
40256;SDS011;25977;45.462;9.210;2022-10-17T10:58:17;51.28;;;29.58;;
40256;SDS011;25977;45.462;9.210;2022-10-17T11:00:54;66.38;;;33.80;;
40256;SDS011;25977;45.462;9.210;2022-10-17T11:03:28;59.40;;;30.13;;
40256;SDS011;25977;45.462;9.210;2022-10-17T11:06:12;56.58;;;31.30;;
40256;SDS011;25977;45.462;9.210;2022-10-17T11:08:59;62.45;;;32.60;;
40256;SDS011;25977;45.462;9.210;2022-10-17T11:11:35;59.78;;;32.20;;
40256;SDS011;25977;45.462;9.210;2022-10-17T11:14:17;60.97;;;31.67;;
40256;SDS011;25977;45.462;9.210;2022-10-17T11:19:38;55.22;;;31.27;;
40256;SDS011;25977;45.462;9.210;2022-10-17T11:22:18;55.80;;;32.00;;
40256;SDS011;25977;45.462;9.210;2022-10-17T11:24:53;57.30;;;30.98;;
40256;SDS011;25977;45.462;9.210;2022-10-17T11:27:43;54.17;;;30.58;;
40256;SDS011;25977;45.462;9.210;2022-10-17T11:30:11;52.17;;;29.88;;
40256;SDS011;25977;45.462;9.210;2022-10-17T11:35:36;58.88;;;31.48;;
40256;SDS011;25977;45.462;9.210;2022-10-17T11:38:24;63.58;;;31.83;;
40256;SDS011;25977;45.462;9.210;2022-10-17T11:40:58;58.67;;;31.98;;
40256;SDS011;25977;45.462;9.210;2022-10-17T11:43:26;54.50;;;31.13;;
40256;SDS011;25977;45.462;9.210;2022-10-17T11:48:30;66.78;;;33.17;;
40256;SDS011;25977;45.462;9.210;2022-10-17T11:51:07;63.72;;;32.35;;
40256;SDS011;25977;45.462;9.210;2022-10-17T11:56:07;58.22;;;29.25;;
40256;SDS011;25977;45.462;9.210;2022-10-17T12:06:47;59.17;;;31.20;;
40256;SDS011;25977;45.462;9.210;2022-10-17T12:12:30;53.25;;;30.48;;
40256;SDS011;25977;45.462;9.210;2022-10-17T12:20:30;60.15;;;32.10;;
40256;SDS011;25977;45.462;9.210;2022-10-17T12:25:46;52.72;;;30.88;;
40256;SDS011;25977;45.462;9.210;2022-10-17T12:28:27;58.05;;;31.33;;
40256;SDS011;25977;45.462;9.210;2022-10-17T12:30:57;53.95;;;30.98;;
40256;SDS011;25977;45.462;9.210;2022-10-17T12:44:49;52.08;;;28.58;;
40256;SDS011;25977;45.462;9.210;2022-10-17T12:49:22;48.72;;;26.20;;
40256;SDS011;25977;45.462;9.210;2022-10-17T12:55:06;46.25;;;25.52;;
40256;SDS011;25977;45.462;9.210;2022-10-17T12:57:54;48.78;;;25.38;;
40256;SDS011;25977;45.462;9.210;2022-10-17T13:03:17;55.47;;;29.35;;
40256;SDS011;25977;45.462;9.210;2022-10-17T13:08:19;45.88;;;25.88;;
40256;SDS011;25977;45.462;9.210;2022-10-17T13:10:50;51.13;;;29.60;;
40256;SDS011;25977;45.462;9.210;2022-10-17T13:13:19;49.13;;;28.52;;
40256;SDS011;25977;45.462;9.210;2022-10-17T13:15:49;54.83;;;29.88;;
40256;SDS011;25977;45.462;9.210;2022-10-17T13:18:21;50.58;;;30.10;;
40256;SDS011;25977;45.462;9.210;2022-10-17T13:20:54;47.03;;;26.27;;
40256;SDS011;25977;45.462;9.210;2022-10-17T13:23:24;49.78;;;28.55;;
40256;SDS011;25977;45.462;9.210;2022-10-17T13:28:37;52.58;;;26.85;;
40256;SDS011;25977;45.462;9.210;2022-10-17T13:31:03;46.13;;;25.88;;
40256;SDS011;25977;45.462;9.210;2022-10-17T13:33:31;43.95;;;26.83;;
40256;SDS011;25977;45.462;9.210;2022-10-17T13:35:59;51.75;;;28.75;;
40256;SDS011;25977;45.462;9.210;2022-10-17T13:38:29;53.13;;;30.33;;
40256;SDS011;25977;45.462;9.210;2022-10-17T13:40:56;47.92;;;28.00;;
40256;SDS011;25977;45.462;9.210;2022-10-17T13:43:23;45.83;;;25.25;;
40256;SDS011;25977;45.462;9.210;2022-10-17T13:45:50;44.30;;;25.00;;
40256;SDS011;25977;45.462;9.210;2022-10-17T13:48:21;44.03;;;25.83;;
40256;SDS011;25977;45.462;9.210;2022-10-17T13:50:50;41.03;;;23.08;;
40256;SDS011;25977;45.462;9.210;2022-10-17T13:53:28;38.05;;;21.80;;
40256;SDS011;25977;45.462;9.210;2022-10-17T13:56:15;41.83;;;23.90;;
40256;SDS011;25977;45.462;9.210;2022-10-17T13:58:42;44.75;;;23.08;;
40256;SDS011;25977;45.462;9.210;2022-10-17T14:01:11;34.08;;;21.83;;
40256;SDS011;25977;45.462;9.210;2022-10-17T14:03:41;46.75;;;25.88;;
40256;SDS011;25977;45.462;9.210;2022-10-17T14:06:21;40.60;;;24.17;;
40256;SDS011;25977;45.462;9.210;2022-10-17T14:08:59;45.80;;;26.05;;
40256;SDS011;25977;45.462;9.210;2022-10-17T14:11:39;47.85;;;26.92;;
40256;SDS011;25977;45.462;9.210;2022-10-17T14:14:17;50.00;;;27.70;;
40256;SDS011;25977;45.462;9.210;2022-10-17T14:16:48;53.60;;;29.08;;
40256;SDS011;25977;45.462;9.210;2022-10-17T14:21:54;56.45;;;27.90;;
40256;SDS011;25977;45.462;9.210;2022-10-17T14:24:38;48.47;;;25.02;;
40256;SDS011;25977;45.462;9.210;2022-10-17T14:29:50;47.78;;;25.02;;
40256;SDS011;25977;45.462;9.210;2022-10-17T14:32:17;43.83;;;26.75;;
40256;SDS011;25977;45.462;9.210;2022-10-17T14:34:44;45.60;;;25.10;;
40256;SDS011;25977;45.462;9.210;2022-10-17T14:37:45;38.67;;;21.50;;
40256;SDS011;25977;45.462;9.210;2022-10-17T14:40:03;34.83;;;21.30;;
40256;SDS011;25977;45.462;9.210;2022-10-17T14:42:30;40.80;;;22.00;;
40256;SDS011;25977;45.462;9.210;2022-10-17T14:45:05;33.83;;;20.90;;
40256;SDS011;25977;45.462;9.210;2022-10-17T14:47:33;36.67;;;21.00;;
40256;SDS011;25977;45.462;9.210;2022-10-17T14:50:06;43.50;;;22.45;;
40256;SDS011;25977;45.462;9.210;2022-10-17T14:52:35;36.60;;;19.30;;
40256;SDS011;25977;45.462;9.210;2022-10-17T14:55:19;29.50;;;17.70;;
40256;SDS011;25977;45.462;9.210;2022-10-17T14:57:48;37.83;;;18.13;;
40256;SDS011;25977;45.462;9.210;2022-10-17T15:00:17;30.48;;;17.17;;
40256;SDS011;25977;45.462;9.210;2022-10-17T15:02:44;28.50;;;16.73;;
40256;SDS011;25977;45.462;9.210;2022-10-17T15:05:11;28.88;;;17.15;;
40256;SDS011;25977;45.462;9.210;2022-10-17T15:07:38;37.38;;;21.02;;
40256;SDS011;25977;45.462;9.210;2022-10-17T15:10:04;36.17;;;19.02;;
40256;SDS011;25977;45.462;9.210;2022-10-17T15:12:30;35.10;;;19.92;;
40256;SDS011;25977;45.462;9.210;2022-10-17T15:14:56;38.88;;;21.10;;
40256;SDS011;25977;45.462;9.210;2022-10-17T15:17:27;36.63;;;22.27;;
40256;SDS011;25977;45.462;9.210;2022-10-17T15:19:55;35.50;;;19.60;;
40256;SDS011;25977;45.462;9.210;2022-10-17T15:22:21;36.35;;;21.58;;
40256;SDS011;25977;45.462;9.210;2022-10-17T15:24:47;35.75;;;19.83;;
40256;SDS011;25977;45.462;9.210;2022-10-17T15:27:18;37.90;;;20.75;;
40256;SDS011;25977;45.462;9.210;2022-10-17T15:29:51;34.25;;;20.95;;
40256;SDS011;25977;45.462;9.210;2022-10-17T15:32:17;33.00;;;19.20;;
40256;SDS011;25977;45.462;9.210;2022-10-17T15:34:43;33.53;;;20.85;;
40256;SDS011;25977;45.462;9.210;2022-10-17T15:37:16;40.08;;;22.83;;
40256;SDS011;25977;45.462;9.210;2022-10-17T15:39:47;40.22;;;23.50;;
40256;SDS011;25977;45.462;9.210;2022-10-17T15:42:17;41.20;;;23.80;;
40256;SDS011;25977;45.462;9.210;2022-10-17T15:44:43;41.88;;;22.75;;
40256;SDS011;25977;45.462;9.210;2022-10-17T15:47:27;41.05;;;22.33;;
40256;SDS011;25977;45.462;9.210;2022-10-17T15:49:57;38.03;;;20.92;;
40256;SDS011;25977;45.462;9.210;2022-10-17T15:52:23;41.70;;;22.45;;
40256;SDS011;25977;45.462;9.210;2022-10-17T15:54:49;43.38;;;24.15;;
40256;SDS011;25977;45.462;9.210;2022-10-17T15:57:18;39.88;;;23.17;;
40256;SDS011;25977;45.462;9.210;2022-10-17T15:59:55;50.97;;;23.35;;
40256;SDS011;25977;45.462;9.210;2022-10-17T16:02:23;41.63;;;22.73;;
40256;SDS011;25977;45.462;9.210;2022-10-17T16:04:49;38.40;;;22.25;;
40256;SDS011;25977;45.462;9.210;2022-10-17T16:07:16;40.47;;;21.27;;
40256;SDS011;25977;45.462;9.210;2022-10-17T16:09:42;34.33;;;22.10;;
40256;SDS011;25977;45.462;9.210;2022-10-17T16:12:14;46.28;;;23.45;;
40256;SDS011;25977;45.462;9.210;2022-10-17T16:14:52;40.20;;;23.63;;
40256;SDS011;25977;45.462;9.210;2022-10-17T16:17:17;41.95;;;23.92;;
40256;SDS011;25977;45.462;9.210;2022-10-17T16:19:43;42.67;;;23.52;;
40256;SDS011;25977;45.462;9.210;2022-10-17T16:22:19;43.22;;;24.55;;
40256;SDS011;25977;45.462;9.210;2022-10-17T16:25:28;41.03;;;23.50;;
40256;SDS011;25977;45.462;9.210;2022-10-17T16:27:54;40.35;;;23.98;;
40256;SDS011;25977;45.462;9.210;2022-10-17T16:30:22;37.28;;;22.38;;
40256;SDS011;25977;45.462;9.210;2022-10-17T16:32:49;44.28;;;23.65;;
40256;SDS011;25977;45.462;9.210;2022-10-17T16:35:19;40.65;;;24.50;;
40256;SDS011;25977;45.462;9.210;2022-10-17T16:37:47;47.55;;;23.30;;
40256;SDS011;25977;45.462;9.210;2022-10-17T16:40:13;46.15;;;23.90;;
40256;SDS011;25977;45.462;9.210;2022-10-17T16:42:40;36.75;;;22.65;;